SBOSBO ZAG / LDZA
Speedbird OnlineSpeedbird Online ZAG / LDZA

Zagreb Airport
18:56 20.4°C

Location Zagreb, Croatia
Latitude: 45.7429008484
Longitude: 16.0687999725
Local Time 18:56 on 30 May 2024
UTC +2 hours (Europe/Zagreb)
Currency £1 equals HRK 8.87
METAR LDZA 301630Z 29011KT 240V340 CAVOK 20/13 Q1005 NOSIG
TAF TAF LDZA 301125Z 3012/3112 22007KT CAVOK TX26/3013Z TN15/3103Z PROB30 TEMPO 3013/3016 30015KT TSRA FEW040CB BKN045 BECMG 3016/3018 22004KT BECMG 3023/3101 07008KT PROB40 3100/3108 RA BKN014 TEMPO 3109/3112 VRB15KT 4000 TSRA FEW030CB BKN035
Weather As Of 30 May 2024 18:56
Description Clear sky
Wind 20 km/h from West (290°)
Cloud Cover 0%
Precipitation Rain: none, Snow: none
Sunrise 05:10
Sunset 20:36
NOTAM 12 active NOTAM
Rotations During the last 90 days there were
81 flights from LHR
81 flights to LHR
Lounges Primeclass Lounge , Main Terminal- Level 2
Web Wikipedia
Codes IATA: ZAG
ICAO: LDZA
Altitude 108 Meter / 353 Feet
Distance 1,331 KM / 827 Miles
from London.
Runways
RunwayLength (m)Surface
043252Asphalt
223252Asphalt
Radio
TypeDescriptionFrequency
APPAPP120.7
ATISATIS124.375
GNDGND121.85
INFOINFO124.85
RDRRADAR120.7
TWRTWR118.3
Live ATC



Support Speedbird Online

© 2017-2024 Speedbird Online